Time;durP1;ratioP1;P1;durP2;ratioP2;P2;SDS_P1;SDS_P2;PMS_P1;PMS_P2;Temp;Humidity;BMP_temperature;BMP_pressure;BME280_temperature;BME280_humidity;BME280_pressure;Samples;Min_cycle;Max_cycle;Signal;HPM_P1;HPM_P2
2021/04/10 00:01:35;;;;;;;3.90;2.50;;;13.80;72.10;;;;;;5039456;28;20513;-60
2021/04/10 00:04:04;;;;;;;4.43;2.77;;;13.70;72.30;;;;;;5033273;28;20418;-60
2021/04/10 00:06:29;;;;;;;4.47;2.80;;;13.60;73.60;;;;;;5033055;28;20766;-59
2021/04/10 00:08:55;;;;;;;4.00;2.10;;;13.60;73.50;;;;;;5033221;28;20493;-59
2021/04/10 00:11:20;;;;;;;4.43;2.60;;;13.40;74.00;;;;;;5033171;28;20191;-59
2021/04/10 00:13:46;;;;;;;3.20;2.10;;;13.40;73.30;;;;;;5047151;28;20167;-59
2021/04/10 00:16:11;;;;;;;6.00;2.53;;;13.40;74.30;;;;;;5053101;28;20199;-59
2021/04/10 00:18:38;;;;;;;2.20;2.00;;;13.30;73.30;;;;;;5053063;28;20254;-60
2021/04/10 00:21:04;;;;;;;3.77;1.90;;;13.30;73.40;;;;;;5053086;28;20190;-59
2021/04/10 00:23:29;;;;;;;2.70;2.50;;;13.30;73.90;;;;;;5036415;28;20464;-59
2021/04/10 00:25:55;;;;;;;3.07;2.17;;;13.20;74.10;;;;;;5033438;28;20254;-59
2021/04/10 00:28:21;;;;;;;4.20;2.57;;;13.20;72.90;;;;;;5033372;28;20568;-59
2021/04/10 00:30:46;;;;;;;4.87;2.90;;;13.20;73.60;;;;;;5033533;28;20242;-59
2021/04/10 00:33:12;;;;;;;2.57;2.20;;;13.30;73.20;;;;;;5033777;28;20160;-57
2021/04/10 00:35:37;;;;;;;4.23;2.77;;;13.30;72.80;;;;;;5036789;28;20171;-59
2021/04/10 00:38:03;;;;;;;3.63;2.10;;;13.20;74.50;;;;;;5050886;28;20187;-59
2021/04/10 00:40:29;;;;;;;5.20;2.93;;;13.10;75.20;;;;;;5047783;28;20209;-59
2021/04/10 00:42:55;;;;;;;5.07;2.40;;;13.00;76.60;;;;;;5053153;28;20170;-60
2021/04/10 00:45:20;;;;;;;2.90;2.00;;;13.00;75.30;;;;;;5052923;28;20170;-59
2021/04/10 00:47:46;;;;;;;6.47;2.90;;;13.00;74.60;;;;;;5052732;28;20597;-60
2021/04/10 00:50:15;;;;;;;3.90;2.37;;;13.20;74.80;;;;;;5053924;28;20186;-60
2021/04/10 00:52:42;;;;;;;6.13;2.57;;;13.20;74.80;;;;;;5051420;28;20210;-60
2021/04/10 00:55:10;;;;;;;4.63;2.00;;;13.20;73.90;;;;;;5036526;28;20421;-53
2021/04/10 00:57:36;;;;;;;2.70;2.20;;;13.30;74.40;;;;;;5054739;28;20411;-59
2021/04/10 01:00:03;;;;;;;3.83;2.80;;;13.40;74.70;;;;;;5056391;28;20926;-59
2021/04/10 01:02:29;;;;;;;2.70;2.20;;;13.30;71.30;;;;;;5056200;28;20235;-58
2021/04/10 01:04:54;;;;;;;3.60;2.67;;;13.50;72.00;;;;;;5056440;28;20409;-58
2021/04/10 01:07:21;;;;;;;2.80;2.07;;;13.60;72.20;;;;;;5041056;28;20199;-55
2021/04/10 01:09:48;;;;;;;3.20;1.90;;;13.80;70.70;;;;;;5036522;28;20223;-58
2021/04/10 01:12:28;;;;;;;4.30;2.00;;;13.60;69.70;;;;;;5036706;28;20823;-58
2021/04/10 01:15:09;;;;;;;3.87;1.97;;;13.80;70.10;;;;;;5031485;28;20419;-59
2021/04/10 01:18:01;;;;;;;3.10;2.30;;;13.90;69.40;;;;;;5047967;28;20404;-61
2021/04/10 01:20:46;;;;;;;2.50;1.80;;;13.80;69.70;;;;;;5036895;28;20522;-59
2021/04/10 01:23:47;;;;;;;6.27;2.80;;;13.80;69.40;;;;;;5050930;28;20784;-59
2021/04/10 01:26:41;;;;;;;4.30;2.00;;;13.80;70.60;;;;;;4968127;28;20421;-59
2021/04/10 01:29:11;;;;;;;2.80;1.83;;;13.80;69.70;;;;;;5056060;28;20409;-59
2021/04/10 01:31:39;;;;;;;3.50;2.20;;;13.80;70.50;;;;;;5055613;28;20445;-59
2021/04/10 01:34:15;;;;;;;3.03;1.90;;;13.80;70.00;;;;;;5042342;28;21002;-60
2021/04/10 01:36:44;;;;;;;5.00;2.33;;;13.90;70.00;;;;;;5055924;28;20424;-59
2021/04/10 01:39:12;;;;;;;4.70;2.50;;;13.90;70.80;;;;;;5055835;28;20392;-55
2021/04/10 01:41:46;;;;;;;3.53;2.20;;;13.80;70.30;;;;;;5054897;28;20439;-59
2021/04/10 01:44:14;;;;;;;4.77;1.80;;;13.80;71.40;;;;;;5054628;28;20894;-58
2021/04/10 01:46:40;;;;;;;5.30;2.30;;;13.80;70.30;;;;;;5035771;28;20488;-59
2021/04/10 01:49:07;;;;;;;2.87;2.10;;;13.80;71.70;;;;;;5035890;28;20402;-59
2021/04/10 01:51:34;;;;;;;3.70;1.80;;;13.70;70.40;;;;;;5035784;28;20982;-59
2021/04/10 01:54:01;;;;;;;2.33;1.97;;;13.60;71.10;;;;;;5029912;28;20456;-59
2021/04/10 01:56:29;;;;;;;2.57;1.80;;;13.50;70.90;;;;;;5040805;28;20425;-52
2021/04/10 01:58:55;;;;;;;4.70;2.07;;;13.70;71.70;;;;;;5055710;28;20909;-60
2021/04/10 02:01:23;;;;;;;2.17;1.80;;;13.60;71.30;;;;;;5054816;28;20788;-60
2021/04/10 02:03:49;;;;;;;5.10;2.00;;;13.60;71.60;;;;;;5055425;28;20397;-60
2021/04/10 02:06:16;;;;;;;3.93;1.93;;;13.50;72.20;;;;;;5055196;28;20402;-60
2021/04/10 02:08:43;;;;;;;3.33;1.77;;;13.50;71.60;;;;;;5055260;28;20453;-60
2021/04/10 02:11:10;;;;;;;4.80;1.60;;;13.70;72.30;;;;;;5055160;28;20826;-59
2021/04/10 02:13:36;;;;;;;3.03;1.83;;;13.60;72.70;;;;;;5042352;28;20406;-60
2021/04/10 02:16:03;;;;;;;3.50;2.17;;;13.50;71.90;;;;;;5017439;28;20475;-60
2021/04/10 02:18:29;;;;;;;3.30;2.20;;;13.60;72.40;;;;;;5035108;28;20414;-60
2021/04/10 02:20:58;;;;;;;3.97;1.67;;;13.50;72.80;;;;;;5040812;28;20504;-61
2021/04/10 02:23:24;;;;;;;3.77;1.70;;;13.60;72.70;;;;;;5035964;28;20412;-60
2021/04/10 02:25:49;;;;;;;1.73;1.63;;;13.60;72.40;;;;;;5036852;28;20418;-60
2021/04/10 02:28:15;;;;;;;3.60;2.03;;;13.60;72.80;;;;;;5055364;28;20206;-60
2021/04/10 02:30:41;;;;;;;2.80;1.37;;;13.50;72.20;;;;;;5055025;28;20656;-56
2021/04/10 02:33:16;;;;;;;3.20;1.70;;;13.50;72.60;;;;;;5055000;28;20201;-60
2021/04/10 02:35:51;;;;;;;3.70;1.37;;;13.50;73.30;;;;;;5036808;28;21271;-60
2021/04/10 02:38:19;;;;;;;2.40;1.63;;;13.50;72.60;;;;;;5038025;28;20413;-60
2021/04/10 02:40:48;;;;;;;3.30;2.17;;;13.60;73.80;;;;;;5040707;28;20492;-60
2021/04/10 02:43:25;;;;;;;1.93;1.53;;;13.50;73.10;;;;;;5036730;28;20410;-60
2021/04/10 02:45:57;;;;;;;3.13;1.70;;;13.60;73.00;;;;;;5054771;28;20410;-60
2021/04/10 02:48:26;;;;;;;7.00;2.30;;;13.50;72.70;;;;;;5054352;28;20813;-60
2021/04/10 02:50:56;;;;;;;2.80;1.87;;;13.60;73.40;;;;;;5054400;28;20420;-58
2021/04/10 02:53:24;;;;;;;2.47;1.80;;;13.80;74.10;;;;;;5043818;28;20428;-59
2021/04/10 02:55:55;;;;;;;3.73;1.70;;;13.80;72.70;;;;;;5033954;28;20915;-60
2021/04/10 02:58:23;;;;;;;2.87;1.67;;;13.90;73.40;;;;;;5034651;28;20387;-60
2021/04/10 03:00:53;;;;;;;2.10;1.70;;;13.70;73.50;;;;;;5050619;28;20434;-59
2021/04/10 03:03:19;;;;;;;3.60;2.00;;;13.90;73.10;;;;;;5054231;28;20412;-60
2021/04/10 03:05:46;;;;;;;2.60;1.60;;;13.50;73.70;;;;;;5054094;28;20416;-60
2021/04/10 03:08:16;;;;;;;2.57;1.57;;;13.60;74.10;;;;;;5054100;28;20451;-60
2021/04/10 03:10:47;;;;;;;1.90;1.27;;;13.70;73.80;;;;;;5036264;28;20426;-59
2021/04/10 03:13:14;;;;;;;4.40;2.03;;;13.60;74.70;;;;;;5039110;28;20511;-60
2021/04/10 03:15:40;;;;;;;5.70;1.67;;;13.50;74.70;;;;;;5046201;28;20442;-60
2021/04/10 03:18:08;;;;;;;2.60;2.03;;;13.40;75.00;;;;;;5037406;28;20409;-59
2021/04/10 03:20:34;;;;;;;2.63;1.60;;;13.50;76.30;;;;;;5033777;28;20433;-60
2021/04/10 03:23:00;;;;;;;2.20;1.50;;;13.70;75.20;;;;;;5033762;28;20966;-60
2021/04/10 03:25:25;;;;;;;5.50;1.83;;;13.60;74.70;;;;;;5033468;28;20210;-60
2021/04/10 03:27:51;;;;;;;4.70;1.83;;;13.30;75.70;;;;;;5033709;28;20200;-60
2021/04/10 03:30:17;;;;;;;3.37;1.70;;;13.20;75.50;;;;;;5036431;28;20218;-60
2021/04/10 03:32:45;;;;;;;3.20;2.13;;;13.40;76.00;;;;;;5053965;28;20829;-60
2021/04/10 03:35:12;;;;;;;4.50;1.60;;;13.40;76.80;;;;;;5040775;28;20420;-60
2021/04/10 03:37:38;;;;;;;3.07;1.87;;;13.50;76.10;;;;;;5033834;28;20420;-59
2021/04/10 03:40:05;;;;;;;2.23;1.47;;;13.50;76.10;;;;;;5033701;28;20452;-60
2021/04/10 03:42:39;;;;;;;2.40;1.40;;;13.50;76.70;;;;;;5053416;28;20489;-60
2021/04/10 03:45:07;;;;;;;3.87;1.73;;;13.60;76.30;;;;;;5035413;28;20953;-59
2021/04/10 03:47:33;;;;;;;1.70;1.50;;;13.50;76.40;;;;;;5044986;28;20459;-59
2021/04/10 03:49:59;;;;;;;1.90;1.73;;;13.40;77.20;;;;;;5052792;28;20789;-59
2021/04/10 03:52:24;;;;;;;2.90;1.50;;;13.50;77.60;;;;;;5033461;28;20175;-59
2021/04/10 03:54:50;;;;;;;2.23;1.60;;;13.30;78.70;;;;;;5033382;28;20623;-59
2021/04/10 03:57:15;;;;;;;6.03;1.73;;;13.30;79.30;;;;;;5032916;28;20645;-59
2021/04/10 03:59:41;;;;;;;4.53;1.53;;;13.20;80.00;;;;;;5033591;28;20185;-59
2021/04/10 04:02:07;;;;;;;4.50;2.10;;;13.20;80.00;;;;;;5033500;28;20183;-62
2021/04/10 04:04:33;;;;;;;1.50;1.40;;;13.30;80.70;;;;;;5053562;28;20412;-59
2021/04/10 04:06:59;;;;;;;4.27;1.93;;;13.30;81.10;;;;;;5053202;28;20228;-58
2021/04/10 04:09:24;;;;;;;2.07;1.23;;;13.20;81.20;;;;;;5068083;22;20275;-64
2021/04/10 04:11:51;;;;;;;3.70;1.37;;;13.20;81.40;;;;;;5051582;28;20236;-63
2021/04/10 04:14:17;;;;;;;3.47;1.60;;;13.40;81.20;;;;;;5052615;28;20567;-64
2021/04/10 04:16:43;;;;;;;2.87;2.07;;;13.50;81.80;;;;;;5052382;28;20402;-63
2021/04/10 04:19:08;;;;;;;5.20;1.90;;;13.50;81.90;;;;;;5052442;28;20178;-63
2021/04/10 04:21:34;;;;;;;1.77;1.60;;;13.20;82.90;;;;;;5052547;28;20175;-63
2021/04/10 04:23:59;;;;;;;4.77;1.67;;;13.10;83.20;;;;;;5043735;28;20232;-65
2021/04/10 04:26:25;;;;;;;3.50;1.80;;;12.90;83.70;;;;;;5049566;28;20227;-63
2021/04/10 04:28:50;;;;;;;3.73;1.60;;;13.00;84.70;;;;;;5056370;28;20202;-63
2021/04/10 04:31:16;;;;;;;2.27;1.50;;;13.00;84.80;;;;;;5056338;28;20541;-63
2021/04/10 04:33:42;;;;;;;2.70;1.67;;;13.00;85.20;;;;;;5055680;28;20215;-64
2021/04/10 04:36:07;;;;;;;2.70;1.77;;;12.80;85.20;;;;;;5018549;28;20186;-63
2021/04/10 04:38:33;;;;;;;3.30;1.63;;;12.80;85.50;;;;;;5035901;28;20197;-63
2021/04/10 04:40:58;;;;;;;1.77;1.43;;;12.90;85.20;;;;;;5036232;28;20250;-63
2021/04/10 04:43:24;;;;;;;6.93;2.10;;;12.80;85.40;;;;;;5046725;28;20232;-63
2021/04/10 04:45:49;;;;;;;3.37;2.37;;;12.70;86.10;;;;;;5056005;28;20163;-64
2021/04/10 04:48:15;;;;;;;2.80;1.67;;;12.70;85.90;;;;;;5055825;28;20187;-64
2021/04/10 04:50:40;;;;;;;2.53;1.83;;;12.90;86.10;;;;;;5056094;28;20254;-63
2021/04/10 04:53:06;;;;;;;1.93;1.70;;;12.80;85.90;;;;;;5056011;28;20158;-64
2021/04/10 04:55:32;;;;;;;3.30;2.17;;;12.70;86.20;;;;;;5039559;28;20773;-64
2021/04/10 04:57:57;;;;;;;4.60;1.60;;;12.70;86.80;;;;;;5036094;28;20493;-63
2021/04/10 05:00:25;;;;;;;2.80;2.43;;;12.70;86.70;;;;;;5035919;28;20223;-63
2021/04/10 05:02:50;;;;;;;3.67;2.10;;;12.50;86.80;;;;;;5036234;28;20572;-64
2021/04/10 05:05:16;;;;;;;3.90;2.10;;;12.50;87.60;;;;;;5039932;28;20448;-62
2021/04/10 05:07:41;;;;;;;2.83;1.87;;;12.30;89.10;;;;;;5055568;28;20194;-64
2021/04/10 05:10:08;;;;;;;2.60;1.80;;;12.20;90.50;;;;;;5037045;28;20202;-65
2021/04/10 05:12:33;;;;;;;4.57;2.40;;;12.10;91.60;;;;;;5056082;28;20628;-61
2021/04/10 05:14:59;;;;;;;2.70;2.23;;;12.00;94.00;;;;;;5055794;28;20412;-63
2021/04/10 05:17:25;;;;;;;6.03;2.80;;;11.80;96.10;;;;;;5055726;28;20203;-62
2021/04/10 05:19:51;;;;;;;2.30;1.70;;;11.80;96.40;;;;;;5055625;28;20266;-62
2021/04/10 05:22:16;;;;;;;2.27;1.90;;;11.80;97.50;;;;;;5053817;28;20169;-62
2021/04/10 05:24:42;;;;;;;4.23;2.17;;;11.80;97.50;;;;;;5025937;28;20460;-63
2021/04/10 05:27:07;;;;;;;2.63;2.40;;;11.80;98.10;;;;;;5055296;28;20184;-62
2021/04/10 05:29:33;;;;;;;2.40;1.90;;;11.90;98.20;;;;;;5055341;28;20184;-62
2021/04/10 05:32:00;;;;;;;3.73;1.80;;;12.00;98.60;;;;;;5055346;28;20274;-61
2021/04/10 05:34:26;;;;;;;5.03;2.20;;;11.90;98.10;;;;;;5054570;28;20168;-63
2021/04/10 05:36:51;;;;;;;4.03;2.00;;;12.10;98.80;;;;;;5050002;28;20509;-62
2021/04/10 05:39:17;;;;;;;3.57;1.90;;;11.90;98.50;;;;;;5017352;28;20610;-62
2021/04/10 05:41:43;;;;;;;3.90;2.10;;;12.00;98.30;;;;;;5035029;28;20204;-62
2021/04/10 05:44:08;;;;;;;4.33;2.93;;;12.10;98.40;;;;;;5027865;28;20171;-64
2021/04/10 05:46:34;;;;;;;2.80;2.20;;;12.10;97.50;;;;;;5044130;28;20230;-63
2021/04/10 05:49:00;;;;;;;2.50;2.30;;;12.00;97.70;;;;;;5038979;28;20664;-62
2021/04/10 05:51:25;;;;;;;2.77;1.80;;;12.10;97.60;;;;;;5046207;28;20194;-62
2021/04/10 05:53:51;;;;;;;2.33;2.00;;;12.00;97.80;;;;;;5054714;28;20223;-64
2021/04/10 05:56:16;;;;;;;3.80;1.80;;;12.10;98.30;;;;;;5055068;28;20658;-63
2021/04/10 05:58:42;;;;;;;6.03;1.73;;;12.00;97.10;;;;;;5054663;28;20195;-63
2021/04/10 06:01:08;;;;;;;1.93;1.73;;;12.00;97.80;;;;;;5049357;28;20167;-64
2021/04/10 06:03:33;;;;;;;2.50;1.93;;;12.20;97.00;;;;;;5047964;28;20543;-63
2021/04/10 06:05:59;;;;;;;2.50;2.27;;;12.20;96.50;;;;;;5039257;28;20179;-63
2021/04/10 06:08:25;;;;;;;3.37;1.70;;;12.10;96.50;;;;;;5034491;28;20245;-64
2021/04/10 06:10:51;;;;;;;3.33;2.10;;;12.30;96.80;;;;;;5034696;28;20635;-64
2021/04/10 06:13:18;;;;;;;2.90;1.90;;;12.40;96.30;;;;;;5034914;28;20168;-64
2021/04/10 06:15:44;;;;;;;3.00;2.33;;;12.50;96.50;;;;;;5034889;28;20406;-64
2021/04/10 06:18:10;;;;;;;3.90;1.50;;;12.50;96.40;;;;;;5034616;28;20774;-63
2021/04/10 06:20:35;;;;;;;5.33;2.37;;;12.40;95.90;;;;;;5034709;28;20171;-64
2021/04/10 06:23:01;;;;;;;3.33;2.00;;;12.40;95.70;;;;;;5033352;28;20175;-65
2021/04/10 06:25:27;;;;;;;3.13;2.83;;;12.40;96.20;;;;;;5031895;28;20604;-64
2021/04/10 06:27:52;;;;;;;3.80;2.90;;;12.30;96.20;;;;;;5042756;28;20186;-62
2021/04/10 06:30:18;;;;;;;4.57;4.17;;;12.30;96.00;;;;;;5050651;28;20183;-63
2021/04/10 06:32:44;;;;;;;4.07;2.80;;;12.20;96.00;;;;;;5054264;28;20168;-61
2021/04/10 06:35:10;;;;;;;4.80;2.50;;;12.20;96.30;;;;;;5053580;28;20434;-62
2021/04/10 06:37:36;;;;;;;2.03;1.87;;;12.30;96.30;;;;;;5043536;28;20178;-62
2021/04/10 06:40:03;;;;;;;2.73;2.30;;;12.30;96.60;;;;;;5034177;28;20430;-62
2021/04/10 06:42:30;;;;;;;5.27;1.80;;;12.40;96.60;;;;;;5037256;28;20167;-62
2021/04/10 06:44:55;;;;;;;2.40;1.50;;;12.40;96.50;;;;;;5033881;28;20937;-63
2021/04/10 06:47:23;;;;;;;3.00;1.57;;;12.70;96.30;;;;;;5033430;28;20502;-63
2021/04/10 06:49:52;;;;;;;3.90;2.33;;;12.90;96.00;;;;;;5033529;28;20271;-62
2021/04/10 06:52:19;;;;;;;3.67;1.80;;;12.70;96.00;;;;;;5016134;28;20461;-62
2021/04/10 06:55:02;;;;;;;2.50;1.67;;;12.60;96.60;;;;;;5027501;28;20408;-62
2021/04/10 06:57:38;;;;;;;3.27;1.70;;;12.60;96.40;;;;;;5039085;28;20413;-62
2021/04/10 07:00:06;;;;;;;2.90;1.67;;;12.90;96.40;;;;;;5034639;28;20461;-63
2021/04/10 07:02:32;;;;;;;4.97;1.70;;;12.80;96.70;;;;;;5049719;28;20452;-64
2021/04/10 07:04:59;;;;;;;1.83;1.40;;;12.30;97.00;;;;;;5031949;28;20464;-62
2021/04/10 07:07:26;;;;;;;5.83;2.13;;;12.60;98.70;;;;;;5033635;28;20488;-62
2021/04/10 07:09:52;;;;;;;2.60;1.70;;;12.20;98.90;;;;;;5033387;28;20446;-62
2021/04/10 07:12:18;;;;;;;3.63;1.97;;;12.10;99.90;;;;;;5037248;28;20440;-62
2021/04/10 07:14:45;;;;;;;3.27;1.77;;;12.00;99.90;;;;;;5053358;28;20409;-63
2021/04/10 07:17:15;;;;;;;2.40;1.43;;;12.00;99.90;;;;;;5047794;28;20419;-63
2021/04/10 07:19:41;;;;;;;3.00;1.40;;;12.30;99.90;;;;;;5052197;28;20430;-62
2021/04/10 07:22:09;;;;;;;5.30;1.90;;;12.50;99.90;;;;;;5052836;28;20410;-63
2021/04/10 07:24:47;;;;;;;4.57;1.60;;;12.50;99.90;;;;;;5033186;28;20778;-62
2021/04/10 07:27:18;;;;;;;3.63;2.00;;;12.50;99.40;;;;;;5033252;28;20517;-62
2021/04/10 07:29:45;;;;;;;3.37;1.87;;;12.60;99.90;;;;;;5033368;28;20426;-62
2021/04/10 07:32:38;;;;;;;4.43;1.87;;;12.50;99.30;;;;;;5034111;28;20408;-62
2021/04/10 07:35:05;;;;;;;4.20;1.60;;;12.50;99.70;;;;;;5034413;28;20420;-62
2021/04/10 07:37:49;;;;;;;2.73;1.90;;;12.40;99.10;;;;;;5033384;28;20420;-63
2021/04/10 07:40:28;;;;;;;2.13;1.93;;;12.50;99.30;;;;;;5041711;28;20869;-62
2021/04/10 07:43:01;;;;;;;2.83;1.57;;;12.50;99.90;;;;;;5046372;28;20485;-62
2021/04/10 07:45:30;;;;;;;1.83;1.53;;;12.50;99.40;;;;;;5047798;28;20823;-63
2021/04/10 07:48:10;;;;;;;1.93;1.50;;;12.50;99.80;;;;;;5042003;28;20449;-63
2021/04/10 07:50:37;;;;;;;1.60;1.50;;;12.60;99.80;;;;;;5043496;28;20401;-62
2021/04/10 07:53:25;;;;;;;7.90;2.20;;;12.60;99.70;;;;;;5038480;28;20514;-62
2021/04/10 07:55:52;;;;;;;1.83;1.47;;;12.60;99.20;;;;;;5032598;28;20408;-62
2021/04/10 07:58:18;;;;;;;2.80;1.53;;;12.60;98.90;;;;;;5032638;28;20427;-63
2021/04/10 08:00:44;;;;;;;3.70;1.80;;;12.50;99.10;;;;;;5032363;28;20410;-62
2021/04/10 08:03:36;;;;;;;3.70;1.80;;;12.50;98.80;;;;;;5032600;28;20170;-62
2021/04/10 08:06:08;;;;;;;4.07;1.70;;;12.40;99.20;;;;;;5019585;28;20409;-63
2021/04/10 08:08:54;;;;;;;2.00;1.47;;;12.50;99.80;;;;;;5051563;28;20467;-62
2021/04/10 08:11:34;;;;;;;6.90;3.30;;;12.50;99.90;;;;;;5045302;28;20430;-62
2021/04/10 08:14:02;;;;;;;1.83;1.73;;;12.30;99.90;;;;;;5045643;28;20410;-62
2021/04/10 08:16:28;;;;;;;4.93;3.33;;;12.20;99.90;;;;;;5034321;28;20830;-63
2021/04/10 08:18:59;;;;;;;4.43;3.20;;;12.30;99.90;;;;;;5039491;28;20534;-63
2021/04/10 08:21:30;;;;;;;34.57;23.00;;;12.30;99.90;;;;;;5036161;28;20211;-62
2021/04/10 08:23:56;;;;;;;3.30;2.40;;;12.40;99.90;;;;;;5031653;28;20944;-62
2021/04/10 08:26:23;;;;;;;1.67;1.57;;;12.40;99.90;;;;;;5032533;28;20413;-62
2021/04/10 08:28:48;;;;;;;3.30;2.70;;;12.30;99.90;;;;;;5032326;28;20458;-62
2021/04/10 08:31:15;;;;;;;2.33;1.97;;;12.30;99.90;;;;;;5032379;28;20457;-62
2021/04/10 08:33:40;;;;;;;1.77;1.67;;;12.40;99.90;;;;;;5032584;28;20406;-61
2021/04/10 08:36:08;;;;;;;2.87;2.40;;;12.30;99.90;;;;;;5051410;28;20433;-63
2021/04/10 08:38:37;;;;;;;1.93;1.70;;;12.30;99.90;;;;;;5052022;28;20237;-61
2021/04/10 08:41:05;;;;;;;1.77;1.60;;;12.60;99.90;;;;;;5052273;28;20405;-59
2021/04/10 08:43:33;;;;;;;2.10;1.37;;;12.80;99.90;;;;;;5042523;28;20413;-63
2021/04/10 08:45:59;;;;;;;4.27;1.80;;;12.80;99.90;;;;;;5036483;28;20471;-62
2021/04/10 08:48:27;;;;;;;1.70;1.60;;;13.00;99.90;;;;;;5049864;28;20980;-61
2021/04/10 08:50:56;;;;;;;1.90;1.60;;;13.10;99.90;;;;;;5020221;28;20406;-61
2021/04/10 08:53:43;;;;;;;2.10;1.60;;;13.30;99.90;;;;;;5032097;28;20433;-63
2021/04/10 08:56:10;;;;;;;2.07;1.70;;;13.00;99.90;;;;;;5021649;28;20425;-61
2021/04/10 08:58:40;;;;;;;1.70;1.57;;;13.00;99.90;;;;;;5032281;28;20424;-60
2021/04/10 09:01:08;;;;;;;2.67;1.93;;;13.00;99.90;;;;;;5047390;28;20788;-60
2021/04/10 09:04:00;;;;;;;1.70;1.33;;;13.00;99.90;;;;;;5033712;28;20483;-60
2021/04/10 09:06:29;;;;;;;1.60;1.50;;;13.20;99.90;;;;;;5027610;28;20420;-61
2021/04/10 09:09:14;;;;;;;3.40;1.70;;;13.20;99.90;;;;;;5031831;28;20469;-61
2021/04/10 09:11:45;;;;;;;3.00;1.67;;;13.40;99.90;;;;;;5034210;28;20444;-60
2021/04/10 09:14:31;;;;;;;2.57;1.60;;;13.20;99.70;;;;;;5038494;28;20401;-60
2021/04/10 09:16:57;;;;;;;1.40;1.13;;;13.40;99.50;;;;;;5035487;28;20410;-61
2021/04/10 09:19:28;;;;;;;2.20;1.30;;;13.20;99.20;;;;;;5035822;28;20787;-60
2021/04/10 09:22:00;;;;;;;2.50;1.60;;;13.40;99.80;;;;;;5036319;28;20149;-60
2021/04/10 09:24:44;;;;;;;2.00;1.40;;;13.50;99.70;;;;;;5030328;28;20426;-62
2021/04/10 09:27:26;;;;;;;1.50;1.30;;;13.70;98.60;;;;;;5055170;28;20446;-60
2021/04/10 09:30:05;;;;;;;2.27;1.23;;;13.70;98.20;;;;;;5049763;28;20426;-60
2021/04/10 09:32:36;;;;;;;1.60;1.10;;;13.90;98.40;;;;;;5035492;28;20404;-60
2021/04/10 09:35:13;;;;;;;2.13;1.37;;;13.80;97.20;;;;;;5034949;28;20408;-60
2021/04/10 09:37:38;;;;;;;2.37;1.40;;;13.50;97.30;;;;;;5035511;28;20492;-61
2021/04/10 09:40:18;;;;;;;2.13;1.40;;;13.60;97.80;;;;;;5053110;28;20860;-61
2021/04/10 09:42:51;;;;;;;2.57;1.60;;;13.80;97.70;;;;;;5054374;28;20173;-61
2021/04/10 09:45:18;;;;;;;1.90;1.30;;;13.90;98.00;;;;;;5055513;28;20395;-61
2021/04/10 09:50:24;;;;;;;2.00;1.60;;;14.00;97.50;;;;;;5055498;28;20909;-61
2021/04/10 09:53:02;;;;;;;2.60;1.43;;;14.00;98.20;;;;;;5055159;28;20441;-61
2021/04/10 09:55:33;;;;;;;2.67;1.50;;;14.00;97.10;;;;;;5054548;28;20447;-60
2021/04/10 09:58:04;;;;;;;1.40;1.20;;;14.00;97.00;;;;;;5055082;28;20434;-60
2021/04/10 10:00:35;;;;;;;1.70;1.40;;;14.20;97.40;;;;;;5054970;28;20928;-60
2021/04/10 10:03:02;;;;;;;1.80;1.47;;;14.30;97.30;;;;;;5053160;28;20452;-62
2021/04/10 10:05:33;;;;;;;1.67;1.30;;;14.20;97.00;;;;;;5042164;28;20428;-61
2021/04/10 10:08:04;;;;;;;2.73;1.20;;;14.00;96.20;;;;;;5038562;28;20543;-60
2021/04/10 10:10:34;;;;;;;1.47;1.07;;;14.30;96.40;;;;;;5054796;22;20545;-57
2021/04/10 10:13:04;;;;;;;3.23;1.67;;;14.20;96.20;;;;;;5035070;28;21154;-57
2021/04/10 10:15:30;;;;;;;3.53;1.43;;;14.30;96.40;;;;;;5055030;28;20453;-56
2021/04/10 10:17:56;;;;;;;7.30;1.23;;;14.30;96.70;;;;;;5042438;28;20411;-57
2021/04/10 10:20:22;;;;;;;1.93;1.40;;;14.40;96.10;;;;;;5041226;28;20426;-57
2021/04/10 10:22:48;;;;;;;1.07;0.97;;;14.50;96.60;;;;;;5046752;28;20206;-55
2021/04/10 10:25:14;;;;;;;3.10;1.10;;;14.80;95.60;;;;;;5053132;28;20411;-59
2021/04/10 10:27:44;;;;;;;3.27;1.23;;;15.00;95.50;;;;;;5055665;28;20193;-59
2021/04/10 10:30:19;;;;;;;2.20;1.33;;;14.80;95.40;;;;;;5055912;28;20431;-60
2021/04/10 10:32:49;;;;;;;2.30;1.40;;;14.80;94.60;;;;;;5055410;28;20903;-59
2021/04/10 10:35:17;;;;;;;2.03;1.47;;;15.00;95.10;;;;;;5054067;28;20415;-58
2021/04/10 10:37:49;;;;;;;1.50;1.00;;;15.00;94.40;;;;;;5047155;28;20428;-59
2021/04/10 10:40:23;;;;;;;2.00;1.60;;;14.90;94.20;;;;;;5053850;28;20446;-58
2021/04/10 10:42:59;;;;;;;3.47;1.30;;;14.60;94.60;;;;;;5054722;28;20929;-60
2021/04/10 10:45:44;;;;;;;2.10;1.20;;;14.80;95.30;;;;;;5054279;28;20501;-57
2021/04/10 10:48:17;;;;;;;2.77;1.30;;;14.80;94.90;;;;;;5054555;28;21037;-60
2021/04/10 10:50:43;;;;;;;2.60;1.53;;;14.90;95.20;;;;;;5054945;28;20428;-60
2021/04/10 10:53:24;;;;;;;1.87;1.20;;;15.10;94.70;;;;;;5047872;28;20426;-61
2021/04/10 10:56:13;;;;;;;2.70;1.10;;;15.10;93.90;;;;;;5050524;28;20428;-59
2021/04/10 10:58:39;;;;;;;2.00;1.00;;;15.30;94.30;;;;;;5046005;28;20758;-59
2021/04/10 11:01:18;;;;;;;1.83;1.40;;;15.50;93.80;;;;;;5040179;28;20467;-59
2021/04/10 11:03:59;;;;;;;3.10;1.60;;;15.20;94.50;;;;;;5049718;28;20444;-60
2021/04/10 11:06:28;;;;;;;2.10;1.30;;;15.50;94.00;;;;;;5038964;28;20948;-60
2021/04/10 11:08:54;;;;;;;1.47;1.20;;;15.70;93.40;;;;;;5041311;28;20440;-59
2021/04/10 11:11:24;;;;;;;3.80;1.37;;;16.00;93.60;;;;;;5022308;28;20436;-60
2021/04/10 11:13:50;;;;;;;2.10;1.07;;;15.90;92.90;;;;;;5040866;28;20392;-59
2021/04/10 11:16:17;;;;;;;2.40;1.27;;;16.20;93.40;;;;;;5047629;28;20411;-60
2021/04/10 11:18:44;;;;;;;4.80;1.30;;;16.50;92.20;;;;;;5055914;28;20414;-58
2021/04/10 11:21:22;;;;;;;3.73;1.40;;;16.60;91.50;;;;;;5055317;28;20448;-59
2021/04/10 11:23:56;;;;;;;2.50;1.50;;;16.80;91.10;;;;;;5053891;28;20501;-63
2021/04/10 11:26:41;;;;;;;1.63;1.30;;;16.50;90.60;;;;;;5050503;28;20497;-61
2021/04/10 11:29:14;;;;;;;1.77;1.20;;;16.80;91.10;;;;;;5044752;28;20539;-59
2021/04/10 11:31:40;;;;;;;3.47;1.77;;;16.80;90.30;;;;;;5045310;28;20408;-60
2021/04/10 11:34:26;;;;;;;2.53;1.27;;;16.80;91.10;;;;;;5048981;28;20413;-60
2021/04/10 11:36:52;;;;;;;1.50;1.10;;;17.20;88.90;;;;;;5036664;28;20181;-58
2021/04/10 11:39:18;;;;;;;1.37;1.20;;;17.40;88.20;;;;;;5053010;28;20432;-60
2021/04/10 11:41:49;;;;;;;2.07;1.20;;;17.50;88.80;;;;;;5053454;28;20455;-60
2021/04/10 11:44:19;;;;;;;2.40;1.40;;;17.80;88.00;;;;;;5042691;28;20539;-61
2021/04/10 11:46:45;;;;;;;1.73;1.13;;;18.10;87.10;;;;;;5044717;28;20592;-57
2021/04/10 11:49:24;;;;;;;1.30;0.93;;;18.20;87.70;;;;;;5053091;28;20948;-55
2021/04/10 11:51:50;;;;;;;2.80;1.00;;;17.80;84.90;;;;;;5053112;28;20508;-57
2021/04/10 11:54:42;;;;;;;1.90;1.30;;;17.80;85.90;;;;;;5052562;28;20419;-54
2021/04/10 11:57:26;;;;;;;5.70;1.80;;;17.70;85.30;;;;;;5050097;28;20447;-56
2021/04/10 12:00:04;;;;;;;1.30;1.20;;;17.70;85.50;;;;;;5053143;28;20491;-57
2021/04/10 12:02:34;;;;;;;1.60;1.30;;;17.60;84.80;;;;;;5053245;28;20840;-57
2021/04/10 12:05:27;;;;;;;2.17;1.07;;;17.40;84.70;;;;;;5041166;28;20451;-56
2021/04/10 12:08:15;;;;;;;1.50;1.30;;;17.60;83.70;;;;;;5046811;28;20449;-57
2021/04/10 12:10:43;;;;;;;1.50;0.90;;;17.80;83.50;;;;;;5045794;28;20440;-54
2021/04/10 12:13:10;;;;;;;2.40;1.53;;;18.00;83.70;;;;;;5033950;28;20428;-54
2021/04/10 12:15:38;;;;;;;3.43;1.77;;;18.50;85.50;;;;;;5016170;28;20406;-55
2021/04/10 12:18:05;;;;;;;3.83;1.30;;;18.90;81.40;;;;;;5035361;28;20414;-56
2021/04/10 12:20:32;;;;;;;1.60;1.20;;;18.80;81.80;;;;;;5050597;28;20429;-57
2021/04/10 12:22:57;;;;;;;1.40;1.23;;;18.70;80.90;;;;;;5039763;28;20504;-59
2021/04/10 12:25:23;;;;;;;2.00;1.10;;;18.70;81.10;;;;;;5046955;28;20554;-55
2021/04/10 12:27:49;;;;;;;3.03;1.47;;;19.10;81.70;;;;;;5053125;28;20225;-60
2021/04/10 12:30:15;;;;;;;1.73;1.20;;;19.50;79.70;;;;;;5035028;28;20202;-60
2021/04/10 12:32:42;;;;;;;1.90;1.13;;;19.50;77.60;;;;;;5053115;28;20507;-60
2021/04/10 12:35:08;;;;;;;1.17;0.90;;;19.50;77.30;;;;;;5052160;28;20419;-60
2021/04/10 12:37:34;;;;;;;2.63;1.20;;;19.70;79.50;;;;;;5052728;28;20441;-60
2021/04/10 12:40:01;;;;;;;2.77;1.40;;;19.70;78.60;;;;;;5053035;28;20856;-60
2021/04/10 12:42:27;;;;;;;1.47;1.00;;;20.40;76.10;;;;;;5052805;28;20413;-61
2021/04/10 12:44:52;;;;;;;1.97;1.17;;;21.60;74.50;;;;;;5042918;28;20424;-60
2021/04/10 12:47:19;;;;;;;1.80;1.00;;;23.10;69.60;;;;;;5055788;28;20452;-59
2021/04/10 12:49:47;;;;;;;1.90;1.27;;;24.80;62.50;;;;;;5047811;28;20256;-61
2021/04/10 12:52:12;;;;;;;2.00;1.07;;;24.80;60.40;;;;;;5040868;28;20492;-61
2021/04/10 12:54:38;;;;;;;2.97;0.87;;;24.20;57.90;;;;;;5043793;28;20488;-61
2021/04/10 12:57:05;;;;;;;1.87;1.00;;;24.80;56.00;;;;;;5056673;28;20167;-61
2021/04/10 12:59:31;;;;;;;2.20;1.10;;;24.20;55.10;;;;;;5056283;28;20425;-61
2021/04/10 13:01:57;;;;;;;1.73;1.17;;;23.10;56.20;;;;;;5056579;28;20905;-57